TJBQ

Details ICAO TJBQ (BQN)
Name Rafael Hernandez
Region USA (Puerto Rico)
Timezone America/Puerto_Rico (UTC-4.0)
Plans Departing 127
Arriving 149
Stats Elevation 235 ft / 72 m (AMSL)
Location 18.494800° -67.129400°
Runways 1
Magnetic Variation 12.801° W
Sunrise 2019-02-15 10:57:48 UTC / 2019-02-15 06:57:48 Local
Sunset 2019-02-15 22:30:22 UTC / 2019-02-15 18:30:22 Local
Advertisement - Login to hide

Runways

ID Width Length Bearing (true/mag) Surface Threshold Overrun Markings Lighting
08 200 ft / 61 m 11,691 ft / 3,564 m 72.30° / 85.10° ASPHALT 400 ft / 122 m 725 ft / 221 m APP EDGE THRESHOLD REIL-OMNI
26 200 ft / 61 m 11,691 ft / 3,564 m 252.31° / 265.11° ASPHALT 0 ft / 0 m 1,063 ft / 324 m APP EDGE THRESHOLD

Map

Weather


0- 5 10 15 20 25 30 35+ Temperature / °C

Clouds and Precipitation
Forecast for 2019-02-16 00:00 UTC. Updated 5 hours ago

Ground ~20,000 ft ~40,000 ft Winds

METAR

TJBQ 160050Z 00000KT 10SM CLR 24/13 A3000

TAF

TAF TJBQ 152340Z 1600/1624 11003KT P6SM VCSH FEW035 SCT250 FM161400 VRB06KT P6SM FEW030 FM161800 04007KT P6SM VCSH SCT030 FM162130 11005KT P6SM FEW030 SCT060 AMD NOT SKED TIL 161200

Frequencies

Recorded 118.32 MHz ATIS
Unicom 123.00 MHz UNICOM
Ground 120.87 MHz GRND
Approach 118.15 MHz APPR
Approach 118.75 MHz SAN JUAN CNTR
Tower 124.95 MHz
Warning: Do not use this data for real-world aviation or navigation. No guarantee of current accuracy is given.